Time;durP1;ratioP1;P1;durP2;ratioP2;P2;SDS_P1;SDS_P2;PMS_P1;PMS_P2;Temp;Humidity;BMP_temperature;BMP_pressure;BME280_temperature;BME280_humidity;BME280_pressure;Samples;Min_cycle;Max_cycle;Signal;HPM_P1;HPM_P2
2022/09/13 00:00:33;;;;;;;4.30;3.90;;;;;;;;;;5034353;28;20250;-91
2022/09/13 00:03:00;;;;;;;4.20;3.80;;;;;;;;;;5034992;28;20210;-91
2022/09/13 00:05:27;;;;;;;4.73;3.70;;;;;;;;;;5034379;28;20577;-90
2022/09/13 00:07:56;;;;;;;4.03;3.60;;;;;;;;;;5034812;28;20217;-91
2022/09/13 00:10:23;;;;;;;7.77;3.70;;;;;;;;;;5034651;28;20245;-90
2022/09/13 00:12:51;;;;;;;8.33;4.30;;;;;;;;;;5034861;28;20227;-90
2022/09/13 00:15:18;;;;;;;5.70;4.10;;;;;;;;;;5034984;28;20246;-90
2022/09/13 00:17:45;;;;;;;4.93;3.87;;;;;;;;;;5034639;28;20206;-90
2022/09/13 00:20:12;;;;;;;5.37;3.83;;;;;;;;;;5033853;28;20250;-91
2022/09/13 00:22:39;;;;;;;5.27;3.80;;;;;;;;;;5034289;28;20721;-90
2022/09/13 00:25:08;;;;;;;5.83;3.97;;;;;;;;;;5033864;28;20710;-91
2022/09/13 00:27:36;;;;;;;4.70;3.53;;;;;;;;;;5033957;28;20195;-90
2022/09/13 00:30:03;;;;;;;4.70;3.77;;;;;;;;;;5033444;28;20239;-91
2022/09/13 00:32:30;;;;;;;4.40;4.00;;;;;;;;;;5033970;28;20230;-91
2022/09/13 00:34:57;;;;;;;3.60;3.30;;;;;;;;;;5033798;28;20239;-90
2022/09/13 00:37:24;;;;;;;4.70;3.87;;;;;;;;;;5034003;28;20206;-91
2022/09/13 00:39:52;;;;;;;4.33;3.93;;;;;;;;;;5033736;28;20238;-90
2022/09/13 00:42:25;;;;;;;4.43;4.03;;;;;;;;;;5033645;28;20206;-91
2022/09/13 00:44:57;;;;;;;4.30;3.90;;;;;;;;;;5033417;28;20245;-90
2022/09/13 00:47:26;;;;;;;7.10;4.13;;;;;;;;;;5034442;28;20210;-90
2022/09/13 00:49:55;;;;;;;4.63;4.20;;;;;;;;;;5033453;28;20245;-91
2022/09/13 00:52:23;;;;;;;4.57;4.10;;;;;;;;;;5045634;28;20223;-90
2022/09/13 00:54:53;;;;;;;4.47;4.07;;;;;;;;;;5045492;28;20296;-90
2022/09/13 00:57:22;;;;;;;5.53;4.17;;;;;;;;;;5035107;28;20203;-88
2022/09/13 00:59:52;;;;;;;5.43;4.50;;;;;;;;;;5025558;28;20243;-91
2022/09/13 01:02:19;;;;;;;4.70;4.30;;;;;;;;;;5015058;28;20241;-91
2022/09/13 01:04:47;;;;;;;5.83;4.47;;;;;;;;;;5013710;28;20318;-90
2022/09/13 01:07:15;;;;;;;5.50;4.77;;;;;;;;;;5019254;28;20203;-90
2022/09/13 01:09:44;;;;;;;5.03;4.50;;;;;;;;;;5032126;28;20242;-90
2022/09/13 01:12:17;;;;;;;4.63;4.23;;;;;;;;;;5033328;28;20713;-90
2022/09/13 01:14:46;;;;;;;4.90;4.37;;;;;;;;;;5039733;28;20226;-89
2022/09/13 01:17:13;;;;;;;4.73;4.33;;;;;;;;;;5046851;28;20206;-90
2022/09/13 01:19:40;;;;;;;5.93;4.40;;;;;;;;;;5045351;28;20242;-90
2022/09/13 01:22:18;;;;;;;5.47;4.30;;;;;;;;;;5046068;28;20210;-90
2022/09/13 01:24:56;;;;;;;4.90;4.40;;;;;;;;;;5033207;28;20230;-90
2022/09/13 01:27:29;;;;;;;4.43;4.10;;;;;;;;;;5033522;28;20237;-91
2022/09/13 01:30:04;;;;;;;5.13;4.70;;;;;;;;;;5032981;28;20714;-90
2022/09/13 01:32:35;;;;;;;4.57;4.10;;;;;;;;;;5033447;28;20243;-90
2022/09/13 01:35:08;;;;;;;5.63;4.10;;;;;;;;;;5032785;28;20238;-90
2022/09/13 01:37:42;;;;;;;4.87;4.07;;;;;;;;;;5033854;28;20210;-90
2022/09/13 01:40:16;;;;;;;4.60;4.20;;;;;;;;;;5032732;28;20241;-90
2022/09/13 01:42:53;;;;;;;6.80;4.33;;;;;;;;;;5033069;28;20191;-89
2022/09/13 01:45:26;;;;;;;4.60;4.20;;;;;;;;;;5032537;28;20230;-89
2022/09/13 01:47:54;;;;;;;8.17;6.67;;;;;;;;;;5033313;28;20256;-91
2022/09/13 01:50:23;;;;;;;4.67;4.27;;;;;;;;;;5033970;28;20594;-89
2022/09/13 01:52:53;;;;;;;6.33;3.93;;;;;;;;;;5037318;28;20237;-89
2022/09/13 01:55:31;;;;;;;6.40;3.97;;;;;;;;;;5036767;28;20250;-90
2022/09/13 01:58:03;;;;;;;4.93;3.97;;;;;;;;;;5037247;28;20221;-88
2022/09/13 02:00:35;;;;;;;7.33;3.70;;;;;;;;;;5036903;28;20242;-90
2022/09/13 02:03:05;;;;;;;4.07;3.57;;;;;;;;;;5037264;28;20187;-89
2022/09/13 02:05:36;;;;;;;4.33;3.73;;;;;;;;;;5036541;28;20238;-91
2022/09/13 02:08:06;;;;;;;4.20;3.70;;;;;;;;;;5036904;28;20276;-91
2022/09/13 02:10:35;;;;;;;4.40;4.10;;;;;;;;;;5036387;28;20238;-90
2022/09/13 02:13:03;;;;;;;7.90;4.50;;;;;;;;;;5036400;28;20226;-90
2022/09/13 02:15:34;;;;;;;4.80;4.40;;;;;;;;;;5036013;28;20241;-90
2022/09/13 02:18:06;;;;;;;5.13;4.63;;;;;;;;;;5036741;28;20187;-91
2022/09/13 02:20:35;;;;;;;4.87;4.40;;;;;;;;;;5036219;28;20663;-91
2022/09/13 02:23:03;;;;;;;3.97;3.57;;;;;;;;;;5050844;28;20206;-90
2022/09/13 02:25:32;;;;;;;4.70;4.30;;;;;;;;;;5040531;28;20238;-91
2022/09/13 02:28:01;;;;;;;7.40;4.47;;;;;;;;;;5037976;28;20207;-90
2022/09/13 02:30:29;;;;;;;5.10;4.60;;;;;;;;;;5036479;28;20238;-91
2022/09/13 02:32:59;;;;;;;6.50;4.30;;;;;;;;;;5036265;28;20231;-89
2022/09/13 02:35:30;;;;;;;5.13;4.60;;;;;;;;;;5008692;28;20243;-91
2022/09/13 02:37:58;;;;;;;4.80;4.13;;;;;;;;;;5035545;28;20562;-90
2022/09/13 02:40:28;;;;;;;7.40;4.27;;;;;;;;;;5035824;28;20247;-91
2022/09/13 02:42:58;;;;;;;8.03;4.63;;;;;;;;;;5036221;28;20210;-91
2022/09/13 02:45:30;;;;;;;4.97;4.47;;;;;;;;;;5035767;28;20238;-89
2022/09/13 02:48:00;;;;;;;4.90;4.13;;;;;;;;;;5036067;28;20294;-90
2022/09/13 02:50:35;;;;;;;5.33;4.20;;;;;;;;;;5035541;28;20245;-89
2022/09/13 02:53:04;;;;;;;4.33;3.93;;;;;;;;;;5035556;28;20210;-91
2022/09/13 02:55:34;;;;;;;4.53;4.10;;;;;;;;;;5035122;28;20242;-91
2022/09/13 02:58:03;;;;;;;7.03;4.17;;;;;;;;;;5036086;28;20191;-89
2022/09/13 03:00:31;;;;;;;6.13;5.00;;;;;;;;;;5032092;28;20231;-90
2022/09/13 03:03:02;;;;;;;5.57;4.50;;;;;;;;;;5015956;28;20239;-90
2022/09/13 03:05:29;;;;;;;4.73;4.23;;;;;;;;;;5015570;28;20344;-90
2022/09/13 03:07:57;;;;;;;5.83;4.10;;;;;;;;;;5016026;28;20218;-90
2022/09/13 03:10:26;;;;;;;4.77;4.37;;;;;;;;;;5014969;28;20243;-91
2022/09/13 03:13:07;;;;;;;9.13;4.20;;;;;;;;;;5016156;28;20266;-91
2022/09/13 03:15:44;;;;;;;5.30;4.33;;;;;;;;;;5015661;28;20723;-91
2022/09/13 03:18:17;;;;;;;4.50;4.10;;;;;;;;;;5016101;28;20302;-91
2022/09/13 03:20:48;;;;;;;4.50;4.10;;;;;;;;;;5014842;28;20656;-90
2022/09/13 03:23:29;;;;;;;6.27;4.30;;;;;;;;;;5015622;28;20187;-91
2022/09/13 03:26:06;;;;;;;4.73;4.03;;;;;;;;;;5015400;28;20226;-91
2022/09/13 03:28:37;;;;;;;5.60;4.17;;;;;;;;;;5015361;28;20227;-91
2022/09/13 03:31:06;;;;;;;4.67;4.27;;;;;;;;;;5015206;28;20557;-90
2022/09/13 03:33:39;;;;;;;4.60;4.20;;;;;;;;;;5014996;28;20224;-91
2022/09/13 03:36:12;;;;;;;5.57;4.27;;;;;;;;;;5015421;28;20180;-90
2022/09/13 03:38:41;;;;;;;5.33;4.10;;;;;;;;;;5014780;28;20596;-91
2022/09/13 03:41:10;;;;;;;7.53;4.50;;;;;;;;;;5015413;28;20214;-91
2022/09/13 03:43:38;;;;;;;4.70;3.63;;;;;;;;;;5015435;28;20242;-90
2022/09/13 03:46:06;;;;;;;4.83;4.40;;;;;;;;;;5015455;28;20214;-90
2022/09/13 03:48:36;;;;;;;5.33;4.83;;;;;;;;;;5014932;28;20219;-90
2022/09/13 03:51:05;;;;;;;5.57;4.70;;;;;;;;;;5020100;28;20199;-89
2022/09/13 03:53:34;;;;;;;5.77;4.77;;;;;;;;;;5040337;28;20226;-90
2022/09/13 03:56:01;;;;;;;5.40;4.90;;;;;;;;;;5028261;28;20215;-91
2022/09/13 03:58:28;;;;;;;5.10;4.70;;;;;;;;;;5034722;28;20222;-91
2022/09/13 04:00:56;;;;;;;5.53;4.97;;;;;;;;;;5022022;28;20632;-91
2022/09/13 04:03:23;;;;;;;7.03;6.33;;;;;;;;;;5019528;28;20211;-91
2022/09/13 04:05:50;;;;;;;5.93;5.13;;;;;;;;;;5030419;28;20235;-91
2022/09/13 04:08:18;;;;;;;5.33;4.83;;;;;;;;;;5014389;28;20207;-91
2022/09/13 04:10:45;;;;;;;5.80;5.20;;;;;;;;;;5019242;28;20239;-89
2022/09/13 04:13:12;;;;;;;6.10;5.33;;;;;;;;;;5014069;28;20567;-91
2022/09/13 04:15:39;;;;;;;6.10;5.40;;;;;;;;;;5014036;28;20242;-89
2022/09/13 04:18:07;;;;;;;6.70;5.43;;;;;;;;;;5014614;28;20306;-90
2022/09/13 04:20:35;;;;;;;5.70;5.10;;;;;;;;;;5013597;28;20243;-90
2022/09/13 04:23:02;;;;;;;5.53;5.03;;;;;;;;;;5014132;28;20241;-90
2022/09/13 04:25:31;;;;;;;5.77;4.77;;;;;;;;;;5014281;28;20862;-90
2022/09/13 04:27:58;;;;;;;5.37;4.87;;;;;;;;;;5021141;28;20608;-88
2022/09/13 04:30:26;;;;;;;6.70;5.20;;;;;;;;;;5033719;28;20238;-90
2022/09/13 04:32:55;;;;;;;6.60;5.00;;;;;;;;;;5033700;28;20226;-90
2022/09/13 04:35:22;;;;;;;9.87;5.00;;;;;;;;;;5033540;28;20231;-90
2022/09/13 04:37:49;;;;;;;5.33;4.67;;;;;;;;;;5034454;28;20213;-89
2022/09/13 04:40:16;;;;;;;6.10;5.07;;;;;;;;;;5033806;28;20239;-91
2022/09/13 04:42:45;;;;;;;5.03;4.53;;;;;;;;;;5033872;28;20206;-89
2022/09/13 04:45:13;;;;;;;6.33;5.03;;;;;;;;;;5033558;28;20292;-89
2022/09/13 04:47:40;;;;;;;5.97;5.30;;;;;;;;;;5034746;28;20222;-90
2022/09/13 04:50:08;;;;;;;6.20;5.60;;;;;;;;;;5057515;28;20218;-85
2022/09/13 04:52:35;;;;;;;6.30;5.70;;;;;;;;;;5039833;28;20318;-89
2022/09/13 04:55:02;;;;;;;5.67;5.13;;;;;;;;;;5015839;28;20258;-90
2022/09/13 04:57:30;;;;;;;7.03;6.00;;;;;;;;;;5018425;28;20199;-90
2022/09/13 04:59:58;;;;;;;6.23;5.20;;;;;;;;;;5018861;28;20730;-88
2022/09/13 05:02:25;;;;;;;6.47;5.40;;;;;;;;;;5017927;28;20573;-89
2022/09/13 05:04:52;;;;;;;6.80;5.37;;;;;;;;;;5015808;28;20654;-88
2022/09/13 05:07:19;;;;;;;6.10;5.00;;;;;;;;;;5016266;28;20208;-89
2022/09/13 05:09:47;;;;;;;7.53;5.37;;;;;;;;;;5015691;28;20250;-89
2022/09/13 05:12:14;;;;;;;8.83;5.40;;;;;;;;;;5016062;28;20226;-88
2022/09/13 05:14:43;;;;;;;7.30;5.43;;;;;;;;;;5016539;28;20242;-87
2022/09/13 05:17:12;;;;;;;6.30;5.70;;;;;;;;;;5018336;28;20243;-87
2022/09/13 05:19:39;;;;;;;6.07;5.50;;;;;;;;;;5017048;28;20242;-88
2022/09/13 05:22:06;;;;;;;8.60;5.60;;;;;;;;;;5014450;28;20211;-87
2022/09/13 05:24:33;;;;;;;6.43;5.83;;;;;;;;;;5014839;28;20231;-87
2022/09/13 05:27:00;;;;;;;6.27;5.67;;;;;;;;;;5015820;28;20207;-87
2022/09/13 05:29:27;;;;;;;6.63;5.90;;;;;;;;;;5014381;28;20235;-88
2022/09/13 05:31:54;;;;;;;6.47;5.70;;;;;;;;;;5013546;28;20211;-88
2022/09/13 05:34:23;;;;;;;8.60;6.07;;;;;;;;;;5013333;28;20247;-89
2022/09/13 05:36:50;;;;;;;8.47;6.20;;;;;;;;;;5013677;28;20211;-89
2022/09/13 05:39:18;;;;;;;8.43;5.17;;;;;;;;;;5017140;28;20235;-86
2022/09/13 05:41:48;;;;;;;5.93;5.33;;;;;;;;;;5024790;28;20215;-88
2022/09/13 05:44:19;;;;;;;5.80;5.30;;;;;;;;;;5014343;28;20231;-88
2022/09/13 05:46:47;;;;;;;6.20;5.60;;;;;;;;;;5015156;28;20222;-88
2022/09/13 05:49:14;;;;;;;6.20;5.60;;;;;;;;;;5013586;28;20258;-87
2022/09/13 05:51:43;;;;;;;6.27;5.63;;;;;;;;;;5011417;28;20208;-88
2022/09/13 05:54:12;;;;;;;6.43;5.67;;;;;;;;;;5013773;28;20231;-89
2022/09/13 05:56:39;;;;;;;8.50;5.90;;;;;;;;;;5014952;28;20235;-88
2022/09/13 05:59:06;;;;;;;9.90;6.20;;;;;;;;;;5011830;28;20238;-87
2022/09/13 06:01:34;;;;;;;6.60;6.00;;;;;;;;;;5034522;28;20207;-84
2022/09/13 06:04:01;;;;;;;6.77;6.10;;;;;;;;;;5018416;28;20687;-88
2022/09/13 06:06:28;;;;;;;8.23;7.43;;;;;;;;;;5017839;28;20299;-88
2022/09/13 06:08:57;;;;;;;7.63;6.63;;;;;;;;;;5014644;28;20234;-88
2022/09/13 06:11:25;;;;;;;10.27;6.77;;;;;;;;;;5014871;28;20203;-88
2022/09/13 06:13:52;;;;;;;9.23;6.63;;;;;;;;;;5014342;28;20235;-88
2022/09/13 06:16:19;;;;;;;11.20;6.20;;;;;;;;;;5013844;28;20674;-86
2022/09/13 06:18:46;;;;;;;8.03;6.50;;;;;;;;;;5013170;28;20243;-88
2022/09/13 06:21:16;;;;;;;13.10;6.40;;;;;;;;;;5013530;28;20195;-86
2022/09/13 06:23:43;;;;;;;9.67;6.73;;;;;;;;;;5013153;28;20242;-87
2022/09/13 06:26:13;;;;;;;10.97;6.20;;;;;;;;;;5012934;28;20215;-88
2022/09/13 06:28:40;;;;;;;8.83;6.43;;;;;;;;;;5011886;28;20782;-88
2022/09/13 06:31:08;;;;;;;7.30;6.37;;;;;;;;;;5012798;28;20616;-88
2022/09/13 06:33:36;;;;;;;12.93;6.93;;;;;;;;;;5012378;28;20235;-89
2022/09/13 06:36:03;;;;;;;8.77;6.30;;;;;;;;;;5013598;28;20200;-88
2022/09/13 06:38:31;;;;;;;8.70;6.53;;;;;;;;;;5017942;28;20211;-87
2022/09/13 06:41:01;;;;;;;8.60;6.53;;;;;;;;;;5037300;28;20572;-87
2022/09/13 06:43:30;;;;;;;13.47;6.73;;;;;;;;;;5039486;28;20206;-88
2022/09/13 06:46:00;;;;;;;10.30;6.57;;;;;;;;;;5038270;28;20686;-87
2022/09/13 06:48:27;;;;;;;9.57;6.67;;;;;;;;;;5036865;28;20226;-88
2022/09/13 06:50:58;;;;;;;8.73;6.60;;;;;;;;;;5035875;28;20621;-88
2022/09/13 06:53:27;;;;;;;11.23;7.33;;;;;;;;;;5036356;28;20254;-87
2022/09/13 06:56:00;;;;;;;8.83;6.80;;;;;;;;;;5015420;28;20269;-86
2022/09/13 06:58:28;;;;;;;8.10;6.80;;;;;;;;;;5015051;28;20740;-87
2022/09/13 07:01:05;;;;;;;13.93;7.20;;;;;;;;;;5035481;28;20203;-87
2022/09/13 07:03:32;;;;;;;8.77;6.80;;;;;;;;;;5035025;28;20241;-88
2022/09/13 07:05:59;;;;;;;9.40;7.37;;;;;;;;;;5036581;28;20654;-88
2022/09/13 07:08:26;;;;;;;13.93;6.73;;;;;;;;;;5054382;28;20233;-85
2022/09/13 07:10:57;;;;;;;8.97;7.07;;;;;;;;;;5054315;28;20214;-88
2022/09/13 07:13:24;;;;;;;10.30;6.83;;;;;;;;;;5054827;28;20241;-88
2022/09/13 07:15:51;;;;;;;8.60;7.23;;;;;;;;;;5055531;28;20222;-88
2022/09/13 07:18:20;;;;;;;10.13;7.63;;;;;;;;;;5034990;28;20206;-88
2022/09/13 07:20:47;;;;;;;10.43;8.57;;;;;;;;;;5026307;28;20686;-85
2022/09/13 07:23:14;;;;;;;11.60;8.17;;;;;;;;;;5035156;28;20191;-88
2022/09/13 07:25:41;;;;;;;10.67;6.73;;;;;;;;;;5034445;28;20706;-86
2022/09/13 07:28:08;;;;;;;11.87;6.93;;;;;;;;;;5016086;28;20207;-88
2022/09/13 07:30:35;;;;;;;7.90;7.10;;;;;;;;;;5015349;28;20246;-88
2022/09/13 07:33:02;;;;;;;12.33;8.07;;;;;;;;;;5014893;28;20234;-88
2022/09/13 07:35:30;;;;;;;9.87;7.87;;;;;;;;;;5014264;28;20235;-88
2022/09/13 07:37:58;;;;;;;8.43;7.27;;;;;;;;;;5014676;28;20251;-87
2022/09/13 07:40:25;;;;;;;11.17;7.47;;;;;;;;;;5014415;28;20239;-88
2022/09/13 07:42:52;;;;;;;7.63;6.80;;;;;;;;;;5014449;28;20738;-87
2022/09/13 07:45:20;;;;;;;9.33;7.43;;;;;;;;;;5014231;28;20235;-88
2022/09/13 07:47:47;;;;;;;10.57;8.13;;;;;;;;;;5013904;28;20196;-88
2022/09/13 07:50:14;;;;;;;12.80;7.90;;;;;;;;;;5013941;28;20278;-88
2022/09/13 07:52:43;;;;;;;11.33;7.73;;;;;;;;;;5014482;28;20196;-88
2022/09/13 07:55:10;;;;;;;8.53;7.57;;;;;;;;;;5014564;28;20243;-88
2022/09/13 07:57:37;;;;;;;10.20;7.57;;;;;;;;;;5015125;28;20211;-88
2022/09/13 08:00:05;;;;;;;10.83;6.93;;;;;;;;;;5014202;28;20671;-87
2022/09/13 08:02:35;;;;;;;7.63;5.73;;;;;;;;;;5013938;28;20203;-87
2022/09/13 08:05:02;;;;;;;9.80;6.03;;;;;;;;;;5013285;28;20231;-87
2022/09/13 08:07:29;;;;;;;8.97;6.30;;;;;;;;;;5014280;28;20214;-88
2022/09/13 08:09:58;;;;;;;8.23;7.07;;;;;;;;;;5013821;28;20715;-86
2022/09/13 08:12:25;;;;;;;9.40;6.73;;;;;;;;;;5014284;28;20202;-88
2022/09/13 08:14:52;;;;;;;10.30;7.10;;;;;;;;;;5013734;28;20247;-88
2022/09/13 08:17:19;;;;;;;9.13;7.33;;;;;;;;;;5015398;28;20207;-88
2022/09/13 08:19:46;;;;;;;7.60;6.80;;;;;;;;;;5014587;28;20239;-88
2022/09/13 08:22:13;;;;;;;8.73;7.73;;;;;;;;;;5014679;28;20578;-87
2022/09/13 08:24:40;;;;;;;9.50;8.47;;;;;;;;;;5014534;28;20242;-88
2022/09/13 08:27:08;;;;;;;12.97;7.33;;;;;;;;;;5014798;28;20678;-88
2022/09/13 08:29:35;;;;;;;8.70;6.63;;;;;;;;;;5013980;28;20239;-89
2022/09/13 08:32:03;;;;;;;10.37;7.17;;;;;;;;;;5014509;28;20200;-88
2022/09/13 08:34:30;;;;;;;7.80;6.33;;;;;;;;;;5049967;28;20225;-83
2022/09/13 08:36:57;;;;;;;10.37;7.00;;;;;;;;;;5052414;28;20191;-84
2022/09/13 08:39:24;;;;;;;8.00;6.47;;;;;;;;;;5036565;28;20238;-87
2022/09/13 08:42:09;;;;;;;9.17;6.93;;;;;;;;;;5034279;28;20698;-85
2022/09/13 08:44:39;;;;;;;8.43;7.30;;;;;;;;;;5032891;28;20230;-82
2022/09/13 08:47:14;;;;;;;10.70;6.67;;;;;;;;;;5038214;28;20202;-87
2022/09/13 08:49:43;;;;;;;6.63;5.87;;;;;;;;;;5035106;28;20396;-87
2022/09/13 08:52:16;;;;;;;8.00;6.47;;;;;;;;;;5034430;28;20202;-87
2022/09/13 08:54:44;;;;;;;7.57;6.57;;;;;;;;;;5033404;28;20296;-87
2022/09/13 08:57:14;;;;;;;8.23;5.37;;;;;;;;;;5033288;28;20206;-87
2022/09/13 08:59:50;;;;;;;7.97;6.40;;;;;;;;;;5032545;28;20245;-86
2022/09/13 09:02:23;;;;;;;6.77;5.87;;;;;;;;;;5033614;28;20199;-85
2022/09/13 09:04:53;;;;;;;8.70;5.90;;;;;;;;;;5032726;28;20234;-87
2022/09/13 09:07:21;;;;;;;6.77;6.07;;;;;;;;;;5033426;28;20194;-88
2022/09/13 09:09:52;;;;;;;6.53;5.50;;;;;;;;;;5028541;28;20231;-88
2022/09/13 09:12:25;;;;;;;7.87;6.23;;;;;;;;;;5024770;28;20857;-88
2022/09/13 09:14:58;;;;;;;6.73;6.00;;;;;;;;;;5032791;28;20241;-88
2022/09/13 09:17:27;;;;;;;7.63;6.00;;;;;;;;;;5028080;28;20544;-86
2022/09/13 09:19:57;;;;;;;7.73;6.30;;;;;;;;;;5031676;28;20475;-88
2022/09/13 09:22:26;;;;;;;7.17;5.90;;;;;;;;;;5015117;28;20207;-89
2022/09/13 09:24:56;;;;;;;6.97;6.07;;;;;;;;;;5015198;28;20583;-88
2022/09/13 09:27:24;;;;;;;11.50;6.50;;;;;;;;;;5017132;28;20211;-89
2022/09/13 09:29:53;;;;;;;7.43;6.63;;;;;;;;;;5013871;28;20239;-88
2022/09/13 09:32:31;;;;;;;8.27;6.03;;;;;;;;;;5013871;28;20709;-88
2022/09/13 09:35:02;;;;;;;11.80;7.27;;;;;;;;;;5014416;28;20231;-88
2022/09/13 09:37:30;;;;;;;9.03;6.43;;;;;;;;;;5012478;28;20214;-88
2022/09/13 09:40:03;;;;;;;9.07;7.13;;;;;;;;;;5012054;28;20246;-88
2022/09/13 09:42:30;;;;;;;8.57;6.57;;;;;;;;;;5013513;28;20238;-88
2022/09/13 09:45:00;;;;;;;8.37;7.23;;;;;;;;;;5012267;28;20258;-88
2022/09/13 09:47:31;;;;;;;7.93;7.10;;;;;;;;;;5012974;28;20211;-86
2022/09/13 09:50:11;;;;;;;8.97;6.70;;;;;;;;;;5012023;28;20608;-88
2022/09/13 09:52:40;;;;;;;7.37;6.40;;;;;;;;;;5012495;28;20297;-88
2022/09/13 09:55:13;;;;;;;10.67;7.13;;;;;;;;;;5011785;28;20235;-88
2022/09/13 09:57:50;;;;;;;11.23;6.67;;;;;;;;;;5012931;28;20199;-86
2022/09/13 10:00:17;;;;;;;8.33;6.50;;;;;;;;;;5012327;28;20250;-88
2022/09/13 10:02:46;;;;;;;8.50;6.97;;;;;;;;;;5012481;28;20207;-88
2022/09/13 10:05:18;;;;;;;7.73;6.43;;;;;;;;;;5011966;28;20307;-88
2022/09/13 10:07:53;;;;;;;8.13;7.20;;;;;;;;;;5013387;28;20207;-88
2022/09/13 10:10:22;;;;;;;8.23;6.60;;;;;;;;;;5012407;28;20235;-85
2022/09/13 10:12:51;;;;;;;7.37;6.53;;;;;;;;;;5017693;28;20215;-88
2022/09/13 10:15:19;;;;;;;11.00;7.43;;;;;;;;;;5017840;28;20235;-88
2022/09/13 10:18:02;;;;;;;8.83;7.50;;;;;;;;;;5016476;28;20214;-89
2022/09/13 10:20:30;;;;;;;8.63;7.20;;;;;;;;;;5015575;28;20269;-88
2022/09/13 10:23:10;;;;;;;8.80;7.20;;;;;;;;;;5015633;28;20697;-88
2022/09/13 10:25:38;;;;;;;8.37;7.17;;;;;;;;;;5015449;28;20263;-89
2022/09/13 10:28:06;;;;;;;9.90;7.73;;;;;;;;;;5015471;28;20725;-88
2022/09/13 10:30:35;;;;;;;8.70;7.80;;;;;;;;;;5015136;28;20243;-88
2022/09/13 10:33:03;;;;;;;8.23;7.40;;;;;;;;;;5015622;28;20688;-89
2022/09/13 10:35:31;;;;;;;11.57;7.80;;;;;;;;;;5015205;28;20235;-88
2022/09/13 10:37:58;;;;;;;9.18;7.80;;;;;;;;;;5015717;28;20213;-87
2022/09/13 10:40:27;;;;;;;7.87;7.17;;;;;;;;;;5016703;28;20239;-88
2022/09/13 10:42:55;;;;;;;8.63;7.73;;;;;;;;;;5055314;28;20206;-88
2022/09/13 10:45:24;;;;;;;13.30;7.25;;;;;;;;;;5055378;28;20230;-89
2022/09/13 10:47:53;;;;;;;9.00;7.80;;;;;;;;;;5056293;28;20198;-86
2022/09/13 10:50:21;;;;;;;10.32;7.47;;;;;;;;;;5056257;28;20704;-86
2022/09/13 10:52:50;;;;;;;11.10;7.60;;;;;;;;;;5060127;28;20615;-85
2022/09/13 10:55:44;;;;;;;10.68;6.93;;;;;;;;;;5059202;28;20249;-84
2022/09/13 10:58:20;;;;;;;7.97;7.10;;;;;;;;;;5009468;28;20628;-84
2022/09/13 11:01:03;;;;;;;9.83;7.07;;;;;;;;;;5044264;28;20673;-85
2022/09/13 11:03:36;;;;;;;9.00;7.85;;;;;;;;;;5032515;28;20206;-87
2022/09/13 11:06:07;;;;;;;12.85;7.72;;;;;;;;;;5035261;28;20539;-87
2022/09/13 11:08:40;;;;;;;9.98;7.28;;;;;;;;;;5033667;28;20195;-86
2022/09/13 11:11:11;;;;;;;7.55;6.78;;;;;;;;;;5033789;28;20517;-86
2022/09/13 11:13:43;;;;;;;9.07;7.20;;;;;;;;;;5034137;28;20205;-85
2022/09/13 11:16:15;;;;;;;8.50;7.60;;;;;;;;;;5034859;28;20229;-87
2022/09/13 11:18:54;;;;;;;9.57;7.72;;;;;;;;;;5034826;28;20250;-87
2022/09/13 11:21:26;;;;;;;9.18;7.57;;;;;;;;;;5035794;28;20199;-86
2022/09/13 11:24:04;;;;;;;9.93;7.82;;;;;;;;;;5033551;28;20237;-85
2022/09/13 11:26:37;;;;;;;10.70;7.97;;;;;;;;;;5035147;28;20187;-85
2022/09/13 11:29:10;;;;;;;9.40;8.07;;;;;;;;;;5034098;28;20713;-86
2022/09/13 11:31:43;;;;;;;9.77;8.32;;;;;;;;;;5035038;28;20190;-85
2022/09/13 11:34:17;;;;;;;9.10;8.07;;;;;;;;;;5034736;28;20817;-86
2022/09/13 11:36:53;;;;;;;9.93;7.60;;;;;;;;;;5034926;28;20206;-87
2022/09/13 11:39:29;;;;;;;9.15;8.20;;;;;;;;;;5034190;28;20234;-85
2022/09/13 11:42:01;;;;;;;9.75;7.80;;;;;;;;;;5034495;28;20214;-86
2022/09/13 11:44:46;;;;;;;9.45;7.47;;;;;;;;;;5034318;28;20234;-86
2022/09/13 11:47:18;;;;;;;9.18;8.27;;;;;;;;;;5034292;28;20202;-85
2022/09/13 11:50:04;;;;;;;9.70;7.75;;;;;;;;;;5034137;28;20234;-86
2022/09/13 11:52:36;;;;;;;11.55;8.27;;;;;;;;;;5034688;28;20198;-86
2022/09/13 11:55:07;;;;;;;9.38;7.97;;;;;;;;;;5034124;28;20242;-85
2022/09/13 11:57:36;;;;;;;10.85;7.30;;;;;;;;;;5034742;28;20654;-86
2022/09/13 12:00:07;;;;;;;9.35;8.15;;;;;;;;;;5034118;28;20258;-85
2022/09/13 12:02:37;;;;;;;10.07;7.15;;;;;;;;;;5034739;28;20241;-85
2022/09/13 12:05:08;;;;;;;9.00;6.97;;;;;;;;;;5034140;28;20226;-85
2022/09/13 12:07:37;;;;;;;9.68;7.82;;;;;;;;;;5034856;28;20198;-86
2022/09/13 12:10:08;;;;;;;9.20;7.22;;;;;;;;;;5033847;28;20242;-85
2022/09/13 12:12:36;;;;;;;8.32;7.53;;;;;;;;;;5034777;28;20211;-86
2022/09/13 12:15:06;;;;;;;8.25;7.45;;;;;;;;;;5033867;28;20867;-85
2022/09/13 12:17:36;;;;;;;10.00;6.75;;;;;;;;;;5034531;28;20659;-85
2022/09/13 12:20:06;;;;;;;10.07;7.97;;;;;;;;;;5033993;28;20246;-85
2022/09/13 12:22:35;;;;;;;11.00;8.00;;;;;;;;;;5034225;28;20213;-86
2022/09/13 12:25:06;;;;;;;8.32;7.30;;;;;;;;;;5033513;28;20233;-86
2022/09/13 12:27:43;;;;;;;10.60;7.97;;;;;;;;;;5034069;28;20298;-85
2022/09/13 12:30:15;;;;;;;10.75;7.78;;;;;;;;;;5033813;28;20947;-86
2022/09/13 12:32:44;;;;;;;10.30;7.85;;;;;;;;;;5034065;28;20187;-86
2022/09/13 12:35:17;;;;;;;12.40;7.80;;;;;;;;;;5033663;28;20235;-86
2022/09/13 12:37:59;;;;;;;8.88;7.43;;;;;;;;;;5035094;28;20183;-86
2022/09/13 12:40:35;;;;;;;8.88;7.97;;;;;;;;;;5030993;28;20242;-86
2022/09/13 12:43:20;;;;;;;9.85;7.80;;;;;;;;;;5036498;28;20194;-85
2022/09/13 12:45:53;;;;;;;13.10;8.15;;;;;;;;;;5034354;28;20237;-85
2022/09/13 12:48:30;;;;;;;10.80;7.43;;;;;;;;;;5034464;28;20238;-86
2022/09/13 12:51:06;;;;;;;11.25;7.45;;;;;;;;;;5014173;28;20248;-86
2022/09/13 12:53:43;;;;;;;9.32;7.63;;;;;;;;;;5013913;28;20214;-85
2022/09/13 12:56:19;;;;;;;10.52;7.20;;;;;;;;;;5013836;28;20314;-85
2022/09/13 12:58:53;;;;;;;10.85;7.68;;;;;;;;;;5016352;28;20707;-85
2022/09/13 13:01:23;;;;;;;8.73;7.63;;;;;;;;;;5033923;28;20213;-86
2022/09/13 13:03:53;;;;;;;9.02;6.78;;;;;;;;;;5033565;28;20235;-81
2022/09/13 13:06:31;;;;;;;9.98;7.50;;;;;;;;;;5036663;28;20202;-81
2022/09/13 13:08:59;;;;;;;9.00;7.35;;;;;;;;;;5037073;28;20238;-81
2022/09/13 13:11:28;;;;;;;8.55;7.15;;;;;;;;;;5036345;28;20210;-81
2022/09/13 13:13:57;;;;;;;11.00;8.20;;;;;;;;;;5037121;28;20233;-82
2022/09/13 13:16:28;;;;;;;10.25;8.10;;;;;;;;;;5036808;28;20769;-82
2022/09/13 13:18:56;;;;;;;9.98;7.47;;;;;;;;;;5036598;28;20239;-82
2022/09/13 13:21:26;;;;;;;9.32;7.97;;;;;;;;;;5036018;28;20211;-81
2022/09/13 13:24:12;;;;;;;8.45;7.35;;;;;;;;;;5035738;28;20703;-82
2022/09/13 13:26:46;;;;;;;10.45;8.50;;;;;;;;;;5036463;28;20206;-82
2022/09/13 13:29:15;;;;;;;9.18;7.22;;;;;;;;;;5035649;28;20237;-82
2022/09/13 13:31:44;;;;;;;11.18;8.10;;;;;;;;;;5035293;28;20285;-82
2022/09/13 13:34:29;;;;;;;10.85;7.28;;;;;;;;;;5035014;28;20260;-81
2022/09/13 13:36:59;;;;;;;10.38;7.88;;;;;;;;;;5035694;28;20234;-83
2022/09/13 13:39:43;;;;;;;9.70;8.80;;;;;;;;;;5035051;28;20238;-82
2022/09/13 13:42:12;;;;;;;9.52;8.13;;;;;;;;;;5036102;28;20600;-82
2022/09/13 13:45:05;;;;;;;10.68;8.05;;;;;;;;;;5035293;28;20245;-82
2022/09/13 13:48:02;;;;;;;8.82;7.63;;;;;;;;;;5035915;28;20540;-82
2022/09/13 13:50:31;;;;;;;10.80;7.80;;;;;;;;;;5035083;28;20246;-82
2022/09/13 13:53:04;;;;;;;9.35;7.78;;;;;;;;;;5037532;28;20380;-82
2022/09/13 13:55:42;;;;;;;8.98;8.05;;;;;;;;;;5036693;28;20316;-82
2022/09/13 13:58:14;;;;;;;8.60;7.43;;;;;;;;;;5038087;28;20202;-82
2022/09/13 14:00:47;;;;;;;11.02;8.07;;;;;;;;;;5037070;28;20230;-83
2022/09/13 14:03:19;;;;;;;9.32;8.35;;;;;;;;;;5037326;28;20191;-82
2022/09/13 14:05:52;;;;;;;12.60;8.13;;;;;;;;;;5037170;28;20707;-82
2022/09/13 14:08:37;;;;;;;8.65;7.75;;;;;;;;;;5036934;28;20659;-82
2022/09/13 14:11:13;;;;;;;8.23;7.43;;;;;;;;;;5035020;28;20238;-83
2022/09/13 14:13:44;;;;;;;8.15;7.10;;;;;;;;;;5034965;28;20195;-81
2022/09/13 14:16:19;;;;;;;10.20;7.63;;;;;;;;;;5035946;28;20215;-81
2022/09/13 14:18:54;;;;;;;12.02;7.55;;;;;;;;;;5033391;28;20253;-83
2022/09/13 14:21:25;;;;;;;9.05;6.82;;;;;;;;;;5032530;28;20194;-84
2022/09/13 14:24:08;;;;;;;10.95;6.78;;;;;;;;;;5032157;28;20595;-84
2022/09/13 14:26:35;;;;;;;9.88;7.63;;;;;;;;;;5032393;28;20199;-85
2022/09/13 14:29:06;;;;;;;8.07;7.28;;;;;;;;;;5033773;28;20745;-85
2022/09/13 14:31:33;;;;;;;10.65;6.32;;;;;;;;;;5032168;28;20195;-84
2022/09/13 14:34:00;;;;;;;7.93;7.07;;;;;;;;;;5031621;28;20230;-85
2022/09/13 14:36:29;;;;;;;9.02;7.20;;;;;;;;;;5032411;28;20638;-85
2022/09/13 14:38:58;;;;;;;8.00;7.10;;;;;;;;;;5032038;28;20691;-85
2022/09/13 14:41:30;;;;;;;8.05;7.03;;;;;;;;;;5032315;28;20241;-85
2022/09/13 14:44:14;;;;;;;10.00;7.45;;;;;;;;;;5031587;28;20714;-84
2022/09/13 14:46:42;;;;;;;8.45;6.80;;;;;;;;;;5032413;28;20198;-85
2022/09/13 14:49:13;;;;;;;8.40;6.43;;;;;;;;;;5031700;28;20237;-85
2022/09/13 14:51:44;;;;;;;8.90;7.03;;;;;;;;;;5032310;28;20617;-85
2022/09/13 14:54:15;;;;;;;9.13;7.60;;;;;;;;;;5031750;28;20238;-85
2022/09/13 14:56:43;;;;;;;10.32;7.32;;;;;;;;;;5033048;28;20236;-85
2022/09/13 14:59:14;;;;;;;8.52;7.65;;;;;;;;;;5035567;28;20239;-85